Time;durP1;ratioP1;P1;durP2;ratioP2;P2;SDS_P1;SDS_P2;PMS_P1;PMS_P2;Temp;Humidity;BMP_temperature;BMP_pressure;BME280_temperature;BME280_humidity;BME280_pressure;Samples;Min_cycle;Max_cycle;Signal;HPM_P1;HPM_P2
2023/11/27 00:01:41;;;;;;;;;;;5.90;99.90;;;;;;5015302;28;19910;-75
2023/11/27 00:04:07;;;;;;;;;;;5.90;99.90;;;;;;5030153;28;19910;-75
2023/11/27 00:06:32;;;;;;;;;;;5.90;99.90;;;;;;5015187;28;20402;-75
2023/11/27 00:08:58;;;;;;;;;;;6.00;99.90;;;;;;5015059;28;19913;-75
2023/11/27 00:11:23;;;;;;;;;;;6.00;99.90;;;;;;5015323;28;19909;-75
2023/11/27 00:13:49;;;;;;;;;;;6.00;99.90;;;;;;5015067;28;20380;-75
2023/11/27 00:16:15;;;;;;;;;;;5.90;99.90;;;;;;5015184;28;19924;-75
2023/11/27 00:18:40;;;;;;;;;;;6.00;99.90;;;;;;5015376;28;19913;-75
2023/11/27 00:21:06;;;;;;;;;;;5.90;99.90;;;;;;5014771;28;19936;-75
2023/11/27 00:23:31;;;;;;;;;;;5.90;99.90;;;;;;5015043;28;19913;-75
2023/11/27 00:25:57;;;;;;;;;;;5.90;99.90;;;;;;5014578;28;20419;-75
2023/11/27 00:28:22;;;;;;;;;;;5.80;99.90;;;;;;5014332;28;19922;-75
2023/11/27 00:30:48;;;;;;;;;;;5.80;99.90;;;;;;5014939;28;20007;-75
2023/11/27 00:33:14;;;;;;;;;;;5.80;99.90;;;;;;5014416;28;20293;-75
2023/11/27 00:35:40;;;;;;;;;;;5.80;99.90;;;;;;5014869;28;19910;-75
2023/11/27 00:38:05;;;;;;;;;;;5.80;99.90;;;;;;5014589;28;20005;-75
2023/11/27 00:40:31;;;;;;;;;;;5.80;99.90;;;;;;5014533;28;19920;-75
2023/11/27 00:42:56;;;;;;;;;;;5.80;99.90;;;;;;5014567;28;19916;-75
2023/11/27 00:45:22;;;;;;;;;;;5.70;99.90;;;;;;5014438;28;19909;-74
2023/11/27 00:47:47;;;;;;;;;;;5.60;99.90;;;;;;5014421;28;20452;-74
2023/11/27 00:50:13;;;;;;;;;;;5.50;99.90;;;;;;5013596;28;19920;-74
2023/11/27 00:52:38;;;;;;;;;;;5.50;99.90;;;;;;5013117;28;19911;-75
2023/11/27 00:55:04;;;;;;;;;;;5.50;99.90;;;;;;5004985;28;19909;-75
2023/11/27 00:57:30;;;;;;;;;;;5.40;99.90;;;;;;5014055;28;19920;-74
2023/11/27 00:59:56;;;;;;;;;;;5.40;99.90;;;;;;5014416;28;19917;-74
2023/11/27 01:02:21;;;;;;;;;;;5.30;99.90;;;;;;5014305;28;20288;-74
2023/11/27 01:04:47;;;;;;;;;;;5.30;99.90;;;;;;5011026;28;19914;-75
2023/11/27 01:07:12;;;;;;;;;;;5.30;99.90;;;;;;5013988;28;20296;-74
2023/11/27 01:09:39;;;;;;;;;;;5.40;99.90;;;;;;5013633;28;19914;-74
2023/11/27 01:12:05;;;;;;;;;;;5.40;99.90;;;;;;5013888;28;19916;-74
2023/11/27 01:14:31;;;;;;;;;;;5.40;99.90;;;;;;5013280;28;20351;-75
2023/11/27 01:16:56;;;;;;;;;;;5.30;99.90;;;;;;5013976;28;19959;-75
2023/11/27 01:19:22;;;;;;;;;;;5.30;99.90;;;;;;5013848;28;19917;-75
2023/11/27 01:21:48;;;;;;;;;;;5.40;99.90;;;;;;5013838;28;19924;-75
2023/11/27 01:24:14;;;;;;;;;;;5.40;99.90;;;;;;5012482;28;20268;-75
2023/11/27 01:26:39;;;;;;;;;;;5.50;99.90;;;;;;5013877;28;20293;-75
2023/11/27 01:29:05;;;;;;;;;;;5.50;99.90;;;;;;5013748;28;19913;-75
2023/11/27 01:31:30;;;;;;;;;;;5.50;99.90;;;;;;5013525;28;19917;-75
2023/11/27 01:33:56;;;;;;;;;;;5.50;99.90;;;;;;5012322;28;19948;-75
2023/11/27 01:36:21;;;;;;;;;;;5.60;99.90;;;;;;5013696;28;19913;-75
2023/11/27 01:38:47;;;;;;;;;;;5.60;99.90;;;;;;5013876;28;20001;-75
2023/11/27 01:41:13;;;;;;;;;;;5.60;99.90;;;;;;5013599;28;19920;-74
2023/11/27 01:43:38;;;;;;;;;;;5.60;99.90;;;;;;5028812;28;19909;-74
2023/11/27 01:46:23;;;;;;;;;;;5.60;99.90;;;;;;5013395;28;19919;-75
2023/11/27 01:48:53;;;;;;;;;;;5.60;99.90;;;;;;5028684;28;19925;-75
2023/11/27 01:51:19;;;;;;;;;;;5.60;99.90;;;;;;5013644;28;19910;-75
2023/11/27 01:53:45;;;;;;;;;;;5.70;99.90;;;;;;5010690;28;19920;-75
2023/11/27 01:56:11;;;;;;;;;;;5.70;99.90;;;;;;5008409;28;19914;-75
2023/11/27 01:58:36;;;;;;;;;;;5.70;99.90;;;;;;5013687;28;19916;-75
2023/11/27 02:01:02;;;;;;;;;;;5.70;99.90;;;;;;5013549;28;19909;-75
2023/11/27 02:03:28;;;;;;;;;;;5.70;99.90;;;;;;5016548;28;19909;-75
2023/11/27 02:05:54;;;;;;;;;;;5.70;99.90;;;;;;5015769;28;20001;-75
2023/11/27 02:08:19;;;;;;;;;;;5.70;99.90;;;;;;5017360;28;20296;-74
2023/11/27 02:10:45;;;;;;;;;;;5.70;99.90;;;;;;5016758;28;19909;-75
2023/11/27 02:13:12;;;;;;;;;;;5.70;99.90;;;;;;5002519;28;19914;-75
2023/11/27 02:15:38;;;;;;;;;;;5.70;99.90;;;;;;4998007;28;20480;-75
2023/11/27 02:18:04;;;;;;;;;;;5.70;99.90;;;;;;4997740;28;20363;-75
2023/11/27 02:20:29;;;;;;;;;;;5.70;99.90;;;;;;4997578;28;19941;-75
2023/11/27 02:22:55;;;;;;;;;;;5.70;99.90;;;;;;4997461;28;19910;-75
2023/11/27 02:25:20;;;;;;;;;;;5.70;99.90;;;;;;4997776;28;19945;-75
2023/11/27 02:27:46;;;;;;;;;;;5.70;99.90;;;;;;5013036;28;20380;-75
2023/11/27 02:30:12;;;;;;;;;;;5.70;99.90;;;;;;5017228;28;20003;-75
2023/11/27 02:32:37;;;;;;;;;;;5.70;99.90;;;;;;5016918;28;20030;-75
2023/11/27 02:35:03;;;;;;;;;;;5.70;99.90;;;;;;5016844;28;19910;-75
2023/11/27 02:37:29;;;;;;;;;;;5.70;99.90;;;;;;5016636;28;19917;-75
2023/11/27 02:39:55;;;;;;;;;;;5.70;99.90;;;;;;5016956;28;19910;-75
2023/11/27 02:42:20;;;;;;;;;;;5.70;99.90;;;;;;5016876;28;19914;-75
2023/11/27 02:44:46;;;;;;;;;;;5.70;99.90;;;;;;5016799;28;20343;-75
2023/11/27 02:47:11;;;;;;;;;;;5.70;99.90;;;;;;5017014;28;19921;-75
2023/11/27 02:49:38;;;;;;;;;;;5.70;99.90;;;;;;5016290;28;19918;-75
2023/11/27 02:52:04;;;;;;;;;;;5.70;99.90;;;;;;5016610;28;19909;-75
2023/11/27 02:54:29;;;;;;;;;;;5.70;99.90;;;;;;5010330;28;19914;-75
2023/11/27 02:56:55;;;;;;;;;;;5.70;99.90;;;;;;5014471;28;20365;-75
2023/11/27 02:59:20;;;;;;;;;;;5.60;99.90;;;;;;5016866;28;19988;-75
2023/11/27 03:01:46;;;;;;;;;;;5.60;99.90;;;;;;5016269;28;19909;-75
2023/11/27 03:04:12;;;;;;;;;;;5.60;99.90;;;;;;5015449;28;19910;-75
2023/11/27 03:06:38;;;;;;;;;;;5.60;99.90;;;;;;5016778;28;20399;-75
2023/11/27 03:09:04;;;;;;;;;;;5.70;99.90;;;;;;5016076;28;20008;-75
2023/11/27 03:11:30;;;;;;;;;;;5.70;99.90;;;;;;5016099;28;19916;-75
2023/11/27 03:13:55;;;;;;;;;;;5.70;99.90;;;;;;5015904;28;19910;-75
2023/11/27 03:16:21;;;;;;;;;;;5.70;99.90;;;;;;5016243;28;19913;-76
2023/11/27 03:18:46;;;;;;;;;;;5.70;99.90;;;;;;5014847;28;19920;-75
2023/11/27 03:21:18;;;;;;;;;;;5.80;99.90;;;;;;5015866;28;20008;-75
2023/11/27 03:23:44;;;;;;;;;;;5.90;99.90;;;;;;5016120;28;19957;-75
2023/11/27 03:26:09;;;;;;;;;;;5.90;99.90;;;;;;5014387;28;19960;-75
2023/11/27 03:28:35;;;;;;;;;;;5.90;99.90;;;;;;5015922;28;19968;-75
2023/11/27 03:31:01;;;;;;;;;;;5.90;99.90;;;;;;5030791;28;20384;-75
2023/11/27 03:33:26;;;;;;;;;;;5.90;99.90;;;;;;5014555;28;20007;-76
2023/11/27 03:35:51;;;;;;;;;;;5.90;99.90;;;;;;5016060;28;19975;-76
2023/11/27 03:38:17;;;;;;;;;;;5.90;99.90;;;;;;5015735;28;19920;-76
2023/11/27 03:40:42;;;;;;;;;;;5.90;99.90;;;;;;5015939;28;19949;-75
2023/11/27 03:43:08;;;;;;;;;;;5.90;99.90;;;;;;5015773;28;19910;-75
2023/11/27 03:45:33;;;;;;;;;;;6.00;99.90;;;;;;5015559;28;20007;-76
2023/11/27 03:47:59;;;;;;;;;;;6.00;99.90;;;;;;5015537;28;19918;-75
2023/11/27 03:50:24;;;;;;;;;;;6.10;99.90;;;;;;5015492;28;20003;-76
2023/11/27 03:52:50;;;;;;;;;;;6.10;99.90;;;;;;5015520;28;19919;-75
2023/11/27 03:55:16;;;;;;;;;;;6.10;99.90;;;;;;5009104;28;20357;-75
2023/11/27 03:57:41;;;;;;;;;;;6.20;99.90;;;;;;5013296;28;20006;-74
2023/11/27 04:00:09;;;;;;;;;;;6.20;99.90;;;;;;5015240;28;20000;-75
2023/11/27 04:02:34;;;;;;;;;;;6.20;99.90;;;;;;5015143;28;20279;-75
2023/11/27 04:05:00;;;;;;;;;;;6.30;99.90;;;;;;5015439;28;19909;-75
2023/11/27 04:07:27;;;;;;;;;;;6.30;99.90;;;;;;5015059;28;20319;-75
2023/11/27 04:09:52;;;;;;;;;;;6.30;99.90;;;;;;5015103;28;19914;-75
2023/11/27 04:12:18;;;;;;;;;;;6.30;99.90;;;;;;5014888;28;19913;-76
2023/11/27 04:14:43;;;;;;;;;;;6.30;99.90;;;;;;5014987;28;19910;-75
2023/11/27 04:17:09;;;;;;;;;;;6.40;99.90;;;;;;5015257;28;19909;-75
2023/11/27 04:19:34;;;;;;;;;;;6.40;99.90;;;;;;5015082;28;19924;-75
2023/11/27 04:22:00;;;;;;;;;;;6.40;99.90;;;;;;5014919;28;19948;-75
2023/11/27 04:24:25;;;;;;;;;;;6.40;99.90;;;;;;5014161;28;19917;-75
2023/11/27 04:26:51;;;;;;;;;;;6.30;99.90;;;;;;5014481;28;19913;-75
2023/11/27 04:29:16;;;;;;;;;;;6.30;99.90;;;;;;5014680;28;20014;-76
2023/11/27 04:31:42;;;;;;;;;;;6.40;99.90;;;;;;5014889;28;20060;-75
2023/11/27 04:34:07;;;;;;;;;;;6.40;99.90;;;;;;5014639;28;19952;-75
2023/11/27 04:36:33;;;;;;;;;;;6.50;99.90;;;;;;5015025;28;20368;-75
2023/11/27 04:38:58;;;;;;;;;;;6.50;99.90;;;;;;5014434;28;19910;-76
2023/11/27 04:41:24;;;;;;;;;;;6.60;99.90;;;;;;5014598;28;19959;-75
2023/11/27 04:43:49;;;;;;;;;;;6.60;99.90;;;;;;5014695;28;19911;-76
2023/11/27 04:46:16;;;;;;;;;;;6.60;99.90;;;;;;5014463;28;20406;-75
2023/11/27 04:48:42;;;;;;;;;;;6.60;99.90;;;;;;5014430;28;19922;-75
2023/11/27 04:51:08;;;;;;;;;;;6.60;99.90;;;;;;5014642;28;19910;-75
2023/11/27 04:53:33;;;;;;;;;;;6.60;99.90;;;;;;5013149;28;19916;-76
2023/11/27 04:55:59;;;;;;;;;;;6.70;99.90;;;;;;5007495;28;20372;-76
2023/11/27 04:58:27;;;;;;;;;;;6.70;99.90;;;;;;5013747;28;20376;-75
2023/11/27 05:00:53;;;;;;;;;;;6.70;99.90;;;;;;5014203;28;20365;-75
2023/11/27 05:03:20;;;;;;;;;;;6.70;99.90;;;;;;5014283;28;19916;-75
2023/11/27 05:05:45;;;;;;;;;;;6.70;99.90;;;;;;5013968;28;19917;-75
2023/11/27 05:08:11;;;;;;;;;;;6.80;99.90;;;;;;5013964;28;20315;-76
2023/11/27 05:10:38;;;;;;;;;;;6.80;99.90;;;;;;5014062;28;19917;-76
2023/11/27 05:13:05;;;;;;;;;;;6.80;99.90;;;;;;5000529;28;19913;-75
2023/11/27 05:15:31;;;;;;;;;;;6.80;99.90;;;;;;4994758;28;19910;-75
2023/11/27 05:17:57;;;;;;;;;;;6.80;99.90;;;;;;4994775;28;19968;-76
2023/11/27 05:20:22;;;;;;;;;;;6.90;99.90;;;;;;4994351;28;20327;-76
2023/11/27 05:22:48;;;;;;;;;;;6.90;99.90;;;;;;4994255;28;19909;-75
2023/11/27 05:25:13;;;;;;;;;;;6.90;99.90;;;;;;4993902;28;19914;-75
2023/11/27 05:27:39;;;;;;;;;;;6.90;99.90;;;;;;5008130;28;19917;-75
2023/11/27 05:30:06;;;;;;;;;;;6.90;99.90;;;;;;5013085;28;20380;-76
2023/11/27 05:32:31;;;;;;;;;;;6.90;99.90;;;;;;5013725;28;20446;-75
2023/11/27 05:34:57;;;;;;;;;;;6.90;99.90;;;;;;5013800;28;19909;-76
2023/11/27 05:37:23;;;;;;;;;;;7.00;99.90;;;;;;5013745;28;19920;-75
2023/11/27 05:39:49;;;;;;;;;;;7.00;99.90;;;;;;5013732;28;20269;-75
2023/11/27 05:42:19;;;;;;;;;;;7.00;99.90;;;;;;5005579;28;19914;-75
2023/11/27 05:44:44;;;;;;;;;;;7.10;99.90;;;;;;4994200;28;19910;-76
2023/11/27 05:47:11;;;;;;;;;;;7.10;99.90;;;;;;4994580;28;20401;-76
2023/11/27 05:49:37;;;;;;;;;;;7.20;99.90;;;;;;4994035;28;19924;-76
2023/11/27 05:52:03;;;;;;;;;;;7.20;99.90;;;;;;5009200;28;20385;-75
2023/11/27 05:54:28;;;;;;;;;;;7.20;99.90;;;;;;4997571;28;19921;-75
2023/11/27 05:56:54;;;;;;;;;;;7.20;99.90;;;;;;5010949;28;19910;-76
2023/11/27 05:59:20;;;;;;;;;;;7.20;99.90;;;;;;5013215;28;20368;-76
2023/11/27 06:01:45;;;;;;;;;;;7.20;99.90;;;;;;5010240;28;20003;-76
2023/11/27 06:04:11;;;;;;;;;;;7.20;99.90;;;;;;5013130;28;19913;-75
2023/11/27 06:06:37;;;;;;;;;;;7.20;99.90;;;;;;5007108;28;20029;-75
2023/11/27 06:09:02;;;;;;;;;;;7.30;99.90;;;;;;5004639;28;19939;-75
2023/11/27 06:11:28;;;;;;;;;;;7.30;99.90;;;;;;4994379;28;20395;-75
2023/11/27 06:13:53;;;;;;;;;;;7.30;99.90;;;;;;5013061;28;19965;-75
2023/11/27 06:16:20;;;;;;;;;;;7.30;99.90;;;;;;5013323;28;20700;-75
2023/11/27 06:18:46;;;;;;;;;;;7.40;99.90;;;;;;5013584;28;19937;-75
2023/11/27 06:21:11;;;;;;;;;;;7.40;99.90;;;;;;5011681;28;20376;-75
2023/11/27 06:23:38;;;;;;;;;;;7.40;99.90;;;;;;5008407;28;19917;-76
2023/11/27 06:26:03;;;;;;;;;;;7.40;99.90;;;;;;5010875;28;19910;-76
2023/11/27 06:28:29;;;;;;;;;;;7.40;99.90;;;;;;5012687;28;19913;-76
2023/11/27 06:30:54;;;;;;;;;;;7.50;99.90;;;;;;5007002;28;19924;-75
2023/11/27 06:33:20;;;;;;;;;;;7.50;99.90;;;;;;4992003;28;19914;-75
2023/11/27 06:35:46;;;;;;;;;;;7.50;99.90;;;;;;5006106;28;19965;-76
2023/11/27 06:38:12;;;;;;;;;;;7.50;99.90;;;;;;5012523;28;19922;-76
2023/11/27 06:40:38;;;;;;;;;;;7.50;99.90;;;;;;5011936;28;20293;-75
2023/11/27 06:43:04;;;;;;;;;;;7.50;99.90;;;;;;4994409;28;19996;-75
2023/11/27 06:45:29;;;;;;;;;;;7.60;99.90;;;;;;4997933;28;20021;-76
2023/11/27 06:47:54;;;;;;;;;;;7.70;99.90;;;;;;5011136;28;19925;-76
2023/11/27 06:50:20;;;;;;;;;;;7.70;99.90;;;;;;5012915;28;19967;-76
2023/11/27 06:52:46;;;;;;;;;;;7.70;99.90;;;;;;5015795;28;19916;-75
2023/11/27 06:55:12;;;;;;;;;;;7.80;99.90;;;;;;5008174;28;19921;-76
2023/11/27 06:57:38;;;;;;;;;;;7.80;99.90;;;;;;5013560;28;19913;-75
2023/11/27 07:00:05;;;;;;;;;;;7.80;99.90;;;;;;5015583;28;19940;-75
2023/11/27 07:02:30;;;;;;;;;;;7.90;99.90;;;;;;5016108;28;19925;-76
2023/11/27 07:04:57;;;;;;;;;;;7.90;99.90;;;;;;5006104;28;19914;-76
2023/11/27 07:07:23;;;;;;;;;;;7.90;99.90;;;;;;5005232;28;19917;-76
2023/11/27 07:09:48;;;;;;;;;;;8.00;99.90;;;;;;5011567;28;19921;-75
2023/11/27 07:12:15;;;;;;;;;;;8.00;99.90;;;;;;5015027;28;19915;-75
2023/11/27 07:14:41;;;;;;;;;;;8.00;99.90;;;;;;5015996;28;20454;-76
2023/11/27 07:17:07;;;;;;;;;;;8.00;99.90;;;;;;5015271;28;19957;-76
2023/11/27 07:19:32;;;;;;;;;;;7.90;99.90;;;;;;5013903;28;20265;-76
2023/11/27 07:21:58;;;;;;;;;;;7.90;99.90;;;;;;4994943;28;19910;-75
2023/11/27 07:24:23;;;;;;;;;;;7.80;99.90;;;;;;5009111;28;19914;-75
2023/11/27 07:26:49;;;;;;;;;;;7.80;99.90;;;;;;5011155;28;19925;-75
2023/11/27 07:29:14;;;;;;;;;;;7.70;99.90;;;;;;5007137;28;19963;-76
2023/11/27 07:31:40;;;;;;;;;;;7.70;99.90;;;;;;5005127;28;19951;-76
2023/11/27 07:34:05;;;;;;;;;;;7.70;99.90;;;;;;5004298;28;19914;-74
2023/11/27 07:36:31;;;;;;;;;;;7.70;99.90;;;;;;4998681;28;19926;-75
2023/11/27 07:38:56;;;;;;;;;;;7.70;99.90;;;;;;5002736;28;19972;-76
2023/11/27 07:41:22;;;;;;;;;;;7.70;99.90;;;;;;5003127;28;19960;-76
2023/11/27 07:43:48;;;;;;;;;;;7.70;99.90;;;;;;5006915;28;19913;-76
2023/11/27 07:46:13;;;;;;;;;;;7.70;99.90;;;;;;5000476;28;19964;-76
2023/11/27 07:48:39;;;;;;;;;;;7.80;99.90;;;;;;5011769;28;19965;-74
2023/11/27 07:51:06;;;;;;;;;;;7.80;99.90;;;;;;5005362;28;19920;-74
2023/11/27 07:53:31;;;;;;;;;;;7.90;99.90;;;;;;5012303;28;19922;-76
2023/11/27 07:55:57;;;;;;;;;;;7.90;99.90;;;;;;5003821;28;19973;-76
2023/11/27 07:58:22;;;;;;;;;;;7.90;99.90;;;;;;5002889;28;19967;-76
2023/11/27 08:00:48;;;;;;;;;;;8.00;99.90;;;;;;5005703;28;19945;-74
2023/11/27 08:03:13;;;;;;;;;;;8.00;99.90;;;;;;4999166;28;19921;-73
2023/11/27 08:05:39;;;;;;;;;;;8.10;99.90;;;;;;5001281;28;19924;-76
2023/11/27 08:08:04;;;;;;;;;;;8.10;99.90;;;;;;5003416;28;19964;-76
2023/11/27 08:10:30;;;;;;;;;;;8.10;99.90;;;;;;4998340;28;19914;-74
2023/11/27 08:12:56;;;;;;;;;;;8.20;99.90;;;;;;4997336;28;19941;-76
2023/11/27 08:15:21;;;;;;;;;;;8.20;99.90;;;;;;5010846;28;20059;-74
2023/11/27 08:17:49;;;;;;;;;;;8.30;99.90;;;;;;5005775;28;19922;-74
2023/11/27 08:20:15;;;;;;;;;;;8.30;99.90;;;;;;4997018;28;19917;-76
2023/11/27 08:22:44;;;;;;;;;;;8.40;99.90;;;;;;5003099;28;20296;-75
2023/11/27 08:25:10;;;;;;;;;;;8.40;99.90;;;;;;5002201;28;19913;-75
2023/11/27 08:27:38;;;;;;;;;;;8.40;99.90;;;;;;5007938;28;19913;-74
2023/11/27 08:30:09;;;;;;;;;;;8.50;99.90;;;;;;5006846;28;19910;-74
2023/11/27 08:32:35;;;;;;;;;;;8.50;99.90;;;;;;5001919;28;19942;-75
2023/11/27 08:35:00;;;;;;;;;;;8.50;99.90;;;;;;5013014;28;19916;-75
2023/11/27 08:37:26;;;;;;;;;;;8.50;99.90;;;;;;5002001;28;20001;-73
2023/11/27 08:39:51;;;;;;;;;;;8.60;99.90;;;;;;5004069;28;19917;-74
2023/11/27 08:42:17;;;;;;;;;;;8.70;99.90;;;;;;4999091;28;20007;-73
2023/11/27 08:44:42;;;;;;;;;;;8.70;99.90;;;;;;5002240;28;20016;-75
2023/11/27 08:47:08;;;;;;;;;;;8.70;99.90;;;;;;4999750;28;19925;-75
2023/11/27 08:49:34;;;;;;;;;;;8.80;99.90;;;;;;5001318;28;19929;-74
2023/11/27 08:51:59;;;;;;;;;;;8.80;99.90;;;;;;5005252;28;19959;-74
2023/11/27 08:54:32;;;;;;;;;;;8.90;99.90;;;;;;5003364;28;19910;-73
2023/11/27 08:56:58;;;;;;;;;;;9.10;99.90;;;;;;5009722;28;19920;-74
2023/11/27 08:59:24;;;;;;;;;;;9.10;99.90;;;;;;5011388;28;19975;-74
2023/11/27 09:01:51;;;;;;;;;;;9.00;99.90;;;;;;4997766;28;19917;-74
2023/11/27 09:04:18;;;;;;;;;;;9.00;99.90;;;;;;5011244;28;19924;-74
2023/11/27 09:06:44;;;;;;;;;;;9.10;99.90;;;;;;5001247;28;19917;-74
2023/11/27 09:09:11;;;;;;;;;;;9.20;99.90;;;;;;5005572;28;19925;-74
2023/11/27 09:11:37;;;;;;;;;;;9.30;99.90;;;;;;5005504;28;19949;-74
2023/11/27 09:14:02;;;;;;;;;;;9.40;99.90;;;;;;5006625;28;19959;-74
2023/11/27 09:16:28;;;;;;;;;;;9.40;99.90;;;;;;5009479;28;19929;-75
2023/11/27 09:18:53;;;;;;;;;;;9.40;99.90;;;;;;5010294;28;19914;-75
2023/11/27 09:21:19;;;;;;;;;;;9.40;99.90;;;;;;5004330;28;19929;-75
2023/11/27 09:23:44;;;;;;;;;;;9.40;99.90;;;;;;5006041;28;19917;-75
2023/11/27 09:26:10;;;;;;;;;;;9.50;99.90;;;;;;5010230;28;19920;-75
2023/11/27 09:28:36;;;;;;;;;;;9.50;99.90;;;;;;5005004;28;19925;-75
2023/11/27 09:31:01;;;;;;;;;;;9.50;99.90;;;;;;5002319;28;19921;-75
2023/11/27 09:33:27;;;;;;;;;;;9.50;99.90;;;;;;5009910;28;19924;-74
2023/11/27 09:35:53;;;;;;;;;;;9.60;99.90;;;;;;5005712;28;19936;-74
2023/11/27 09:38:18;;;;;;;;;;;9.70;99.90;;;;;;4993012;28;19918;-75
2023/11/27 09:40:44;;;;;;;;;;;9.80;99.90;;;;;;5002024;28;19909;-75
2023/11/27 09:43:10;;;;;;;;;;;9.90;99.90;;;;;;4998763;28;19920;-74
2023/11/27 09:45:36;;;;;;;;;;;9.90;99.90;;;;;;4997981;28;21233;-74
2023/11/27 09:48:04;;;;;;;;;;;9.80;99.90;;;;;;5003825;28;20063;-75
2023/11/27 09:50:31;;;;;;;;;;;9.80;99.90;;;;;;4999463;28;19925;-75
2023/11/27 09:52:59;;;;;;;;;;;9.90;99.90;;;;;;5010690;28;20071;-75
2023/11/27 09:55:26;;;;;;;;;;;10.00;99.90;;;;;;4997570;28;19917;-75
2023/11/27 09:57:52;;;;;;;;;;;10.00;99.90;;;;;;5003779;28;19924;-74
2023/11/27 10:00:19;;;;;;;;;;;10.00;99.90;;;;;;5000086;28;20303;-75
2023/11/27 10:02:47;;;;;;;;;;;10.10;99.90;;;;;;5002374;28;19917;-75
2023/11/27 10:05:14;;;;;;;;;;;10.10;99.90;;;;;;5009908;28;20404;-75
2023/11/27 10:07:39;;;;;;;;;;;10.10;99.90;;;;;;5001991;28;19914;-75
2023/11/27 10:10:05;;;;;;;;;;;10.00;99.90;;;;;;4999116;28;19936;-75
2023/11/27 10:12:30;;;;;;;;;;;10.00;99.90;;;;;;5010613;28;19964;-74
2023/11/27 10:14:57;;;;;;;;;;;10.10;99.90;;;;;;5012005;28;19920;-75
2023/11/27 10:17:24;;;;;;;;;;;10.10;99.90;;;;;;5005279;28;19921;-75
2023/11/27 10:19:53;;;;;;;;;;;10.10;99.90;;;;;;4998482;28;20000;-75
2023/11/27 10:22:19;;;;;;;;;;;10.10;99.90;;;;;;5002841;28;19918;-75
2023/11/27 10:24:44;;;;;;;;;;;10.00;99.90;;;;;;5011063;28;19914;-76
2023/11/27 10:27:10;;;;;;;;;;;10.00;99.90;;;;;;5002256;28;19976;-76
2023/11/27 10:29:36;;;;;;;;;;;10.10;99.90;;;;;;5007994;28;20348;-76
2023/11/27 10:32:02;;;;;;;;;;;10.10;99.90;;;;;;5012037;28;19948;-76
2023/11/27 10:34:31;;;;;;;;;;;10.20;99.90;;;;;;5013737;28;20380;-75
2023/11/27 10:37:00;;;;;;;;;;;10.70;99.90;;;;;;5006758;28;19945;-75
2023/11/27 10:39:32;;;;;;;;;;;11.30;99.90;;;;;;5010821;28;19967;-75
2023/11/27 10:41:58;;;;;;;;;;;11.70;99.90;;;;;;5015467;28;20396;-75
2023/11/27 10:44:25;;;;;;;;;;;12.40;99.90;;;;;;5005573;28;19960;-75
2023/11/27 10:46:53;;;;;;;;;;;12.90;99.90;;;;;;5001840;28;20035;-74
2023/11/27 10:49:20;;;;;;;;;;;13.30;99.90;;;;;;4997335;28;20296;-74
2023/11/27 10:51:46;;;;;;;;;;;13.10;99.90;;;;;;5011691;28;19921;-75
2023/11/27 10:54:14;;;;;;;;;;;13.10;99.90;;;;;;5003604;28;19918;-75
2023/11/27 10:56:44;;;;;;;;;;;13.00;99.90;;;;;;5011632;28;19921;-75
2023/11/27 10:59:12;;;;;;;;;;;13.10;99.90;;;;;;4999703;28;19913;-75
2023/11/27 11:01:41;;;;;;;;;;;13.10;99.90;;;;;;5014216;28;19917;-75
2023/11/27 11:04:11;;;;;;;;;;;13.00;99.90;;;;;;5013936;28;19921;-75
2023/11/27 11:06:39;;;;;;;;;;;12.90;99.90;;;;;;5013643;28;19988;-75
2023/11/27 11:09:07;;;;;;;;;;;12.90;99.90;;;;;;5008693;28;19944;-74
2023/11/27 11:11:33;;;;;;;;;;;12.80;99.90;;;;;;4998013;28;19924;-74
2023/11/27 11:13:59;;;;;;;;;;;12.70;99.90;;;;;;5001334;28;19914;-74
2023/11/27 11:16:30;;;;;;;;;;;12.70;99.90;;;;;;5011279;28;19909;-75
2023/11/27 11:18:58;;;;;;;;;;;12.80;99.90;;;;;;5008873;28;19918;-74
2023/11/27 11:21:39;;;;;;;;;;;12.80;99.90;;;;;;5009967;28;19914;-75
2023/11/27 11:24:15;;;;;;;;;;;12.80;99.90;;;;;;5003217;28;20261;-75
2023/11/27 11:27:16;;;;;;;;;;;12.70;99.90;;;;;;5011936;28;19917;-74
2023/11/27 11:29:44;;;;;;;;;;;12.70;99.90;;;;;;4988279;28;19926;-75
2023/11/27 11:32:18;;;;;;;;;;;12.80;99.90;;;;;;5004544;28;19932;-74
2023/11/27 11:34:49;;;;;;;;;;;12.90;99.90;;;;;;5001417;28;19917;-74
2023/11/27 11:37:17;;;;;;;;;;;12.90;99.90;;;;;;5004264;28;20038;-74
2023/11/27 11:39:53;;;;;;;;;;;12.90;99.90;;;;;;4999063;28;19921;-74
2023/11/27 11:42:23;;;;;;;;;;;13.00;99.90;;;;;;5005271;28;19918;-75
2023/11/27 11:45:06;;;;;;;;;;;13.10;99.90;;;;;;5007730;28;19964;-75
2023/11/27 11:47:33;;;;;;;;;;;13.20;99.90;;;;;;5008708;28;20324;-75
2023/11/27 11:50:17;;;;;;;;;;;13.20;99.90;;;;;;5009079;28;19925;-74
2023/11/27 11:52:43;;;;;;;;;;;13.30;99.90;;;;;;5007412;28;20004;-75
2023/11/27 11:55:13;;;;;;;;;;;13.20;99.90;;;;;;5008273;28;20442;-75
2023/11/27 11:57:38;;;;;;;;;;;13.20;99.90;;;;;;5011612;28;19913;-75
2023/11/27 12:00:19;;;;;;;;;;;13.20;99.90;;;;;;5007245;28;19976;-74
2023/11/27 12:02:46;;;;;;;;;;;13.30;99.90;;;;;;5019673;28;19925;-74
2023/11/27 12:05:12;;;;;;;;;;;13.20;99.90;;;;;;5004971;28;20396;-74
2023/11/27 12:07:38;;;;;;;;;;;13.20;99.90;;;;;;5003432;28;19914;-75
2023/11/27 12:10:06;;;;;;;;;;;13.30;99.90;;;;;;5011027;28;19914;-75
2023/11/27 12:12:32;;;;;;;;;;;13.30;99.90;;;;;;5005454;28;19932;-74
2023/11/27 12:15:00;;;;;;;;;;;13.30;99.90;;;;;;5007732;28;20348;-74
2023/11/27 12:17:29;;;;;;;;;;;13.40;99.90;;;;;;5007582;28;20373;-74
2023/11/27 12:19:54;;;;;;;;;;;13.40;99.90;;;;;;5000764;28;19921;-74
2023/11/27 12:22:20;;;;;;;;;;;13.40;99.90;;;;;;5008062;28;20376;-75
2023/11/27 12:24:46;;;;;;;;;;;13.30;99.90;;;;;;5006062;28;19969;-74
2023/11/27 12:27:12;;;;;;;;;;;13.30;99.90;;;;;;5003533;28;19918;-74
2023/11/27 12:29:38;;;;;;;;;;;13.30;99.90;;;;;;5007665;28;20288;-74
2023/11/27 12:32:07;;;;;;;;;;;13.20;99.90;;;;;;5007947;28;19917;-75
2023/11/27 12:34:34;;;;;;;;;;;13.20;99.90;;;;;;5007261;28;20388;-75
2023/11/27 12:37:02;;;;;;;;;;;13.30;99.90;;;;;;5001373;28;19910;-75
2023/11/27 12:39:28;;;;;;;;;;;13.20;99.90;;;;;;5007308;28;19921;-74
2023/11/27 12:42:03;;;;;;;;;;;13.30;99.90;;;;;;5005608;28;19957;-75
2023/11/27 12:44:29;;;;;;;;;;;13.30;99.90;;;;;;5001490;28;19940;-74
2023/11/27 12:46:55;;;;;;;;;;;13.30;99.90;;;;;;5017216;28;19917;-75
2023/11/27 12:49:24;;;;;;;;;;;13.30;99.90;;;;;;5000496;28;19990;-75
2023/11/27 12:51:54;;;;;;;;;;;13.20;99.90;;;;;;4994221;28;19918;-75
2023/11/27 12:54:21;;;;;;;;;;;13.20;99.90;;;;;;5001935;28;20398;-75
2023/11/27 12:56:51;;;;;;;;;;;13.20;99.90;;;;;;4980057;28;20517;-74
2023/11/27 12:59:17;;;;;;;;;;;13.10;99.90;;;;;;4976729;28;20227;-74
2023/11/27 13:01:57;;;;;;;;;;;13.10;99.90;;;;;;4966401;28;19984;-74
2023/11/27 13:04:36;;;;;;;;;;;13.00;99.90;;;;;;4974958;28;20329;-73
2023/11/27 13:07:14;;;;;;;;;;;12.90;99.90;;;;;;4976122;28;20667;-74
2023/11/27 13:09:40;;;;;;;;;;;12.70;99.90;;;;;;4969155;28;20353;-74
2023/11/27 13:12:15;;;;;;;;;;;12.60;99.90;;;;;;4983449;28;20414;-73
2023/11/27 13:14:41;;;;;;;;;;;12.60;99.90;;;;;;4976527;28;19917;-73
2023/11/27 13:17:09;;;;;;;;;;;12.50;99.90;;;;;;4974960;28;19918;-73
2023/11/27 13:19:34;;;;;;;;;;;12.50;99.90;;;;;;4980829;28;19922;-74
2023/11/27 13:22:00;;;;;;;;;;;12.50;99.90;;;;;;4971069;28;20352;-74
2023/11/27 13:24:29;;;;;;;;;;;12.50;99.90;;;;;;4975613;28;20232;-74
2023/11/27 13:26:55;;;;;;;;;;;12.40;99.90;;;;;;4977994;28;19960;-73
2023/11/27 13:29:24;;;;;;;;;;;12.40;99.90;;;;;;4983504;28;19922;-74
2023/11/27 13:31:50;;;;;;;;;;;12.30;99.90;;;;;;4908251;28;1813523;-73
2023/11/27 13:34:36;;;;;;;;;;;12.20;99.90;;;;;;4977721;28;20371;-74
2023/11/27 13:37:07;;;;;;;;;;;12.10;99.90;;;;;;4969200;28;19924;-74
2023/11/27 13:39:37;;;;;;;;;;;12.10;99.90;;;;;;4983364;28;20043;-74
2023/11/27 13:42:08;;;;;;;;;;;12.10;99.90;;;;;;4978083;28;19983;-74
2023/11/27 13:44:35;;;;;;;;;;;12.00;99.90;;;;;;4980266;28;20049;-74
2023/11/27 13:47:00;;;;;;;;;;;12.10;99.90;;;;;;4973770;28;19914;-74
2023/11/27 13:49:27;;;;;;;;;;;12.10;99.90;;;;;;4982279;28;20036;-74
2023/11/27 13:52:01;;;;;;;;;;;12.10;99.90;;;;;;4975922;28;19921;-74
2023/11/27 13:54:27;;;;;;;;;;;12.20;99.90;;;;;;4977536;28;20602;-74
2023/11/27 13:56:58;;;;;;;;;;;12.20;99.90;;;;;;4982368;28;20387;-74
2023/11/27 13:59:35;;;;;;;;;;;12.30;99.90;;;;;;4981412;28;20432;-74
2023/11/27 14:02:10;;;;;;;;;;;12.30;99.90;;;;;;4980852;28;20316;-74
2023/11/27 14:04:47;;;;;;;;;;;12.30;99.90;;;;;;4973714;28;20015;-74
2023/11/27 14:07:14;;;;;;;;;;;12.30;99.90;;;;;;4970044;28;19921;-75
2023/11/27 14:12:14;;;;;;;;;;;12.30;99.90;;;;;;5001212;28;19921;-75
2023/11/27 14:14:43;;;;;;;;;;;12.20;99.90;;;;;;5001911;28;19917;-75
2023/11/27 14:17:32;;;;;;;;;;;12.00;99.90;;;;;;5008265;28;19936;-74
2023/11/27 14:23:15;;;;;;;;;;;12.20;99.90;;;;;;4997590;28;20044;-75
2023/11/27 14:31:09;;;;;;;;;;;12.20;99.90;;;;;;4956566;28;19915;-74
2023/11/27 14:33:35;;;;;;;;;;;12.20;99.90;;;;;;4998812;28;20315;-74
2023/11/27 14:36:01;;;;;;;;;;;12.20;99.90;;;;;;5010858;28;19914;-75